Time,TemperatureF,DewpointF,PressureIn,WindDirection,WindDirectionDegrees,WindSpeedMPH,WindSpeedGustMPH,Humidity,HourlyPrecipIn,Conditions,Clouds,dailyrainin,SoftwareType,DateUTC
2013-02-01 00:02:00,10.8,4.7,30.52,NNW,339,0.0,0.0,76,0.00,,,0.00,Wunderground v.1.15,2013-02-01 06:02:00,
2013-02-01 00:08:00,10.8,5.0,30.53,NNW,339,0.0,0.0,77,0.00,,,0.00,Wunderground v.1.15,2013-02-01 06:08:00,
2013-02-01 00:14:00,10.8,4.4,30.53,NNW,339,0.0,1.0,75,0.00,,,0.00,Wunderground v.1.15,2013-02-01 06:14:00,
2013-02-01 00:19:00,10.7,4.3,30.54,NNW,339,0.0,0.0,75,0.00,,,0.00,Wunderground v.1.15,2013-02-01 06:19:00,
2013-02-01 00:25:00,10.6,4.2,30.53,NNW,339,0.0,1.0,75,0.00,,,0.00,Wunderground v.1.15,2013-02-01 06:25:00,
2013-02-01 00:31:00,10.4,4.0,30.52,NNW,339,0.0,1.0,75,0.00,,,0.00,Wunderground v.1.15,2013-02-01 06:31:00,
2013-02-01 00:37:00,10.3,4.2,30.51,NNW,339,0.0,1.0,76,0.00,,,0.00,Wunderground v.1.15,2013-02-01 06:37:00,
2013-02-01 00:42:00,10.3,4.5,30.52,NNW,339,0.0,1.0,77,0.00,,,0.00,Wunderground v.1.15,2013-02-01 06:42:00,
2013-02-01 00:48:00,10.4,4.3,30.53,NNW,339,0.0,1.0,76,0.00,,,0.00,Wunderground v.1.15,2013-02-01 06:48:00,
2013-02-01 00:54:00,10.4,4.3,30.53,NNW,339,1.0,1.0,76,0.00,,,0.00,Wunderground v.1.15,2013-02-01 06:54:00,
2013-02-01 01:00:00,10.4,4.3,30.52,NNW,339,0.0,1.0,76,0.00,,,0.00,Wunderground v.1.15,2013-02-01 07:00:00,
2013-02-01 01:05:00,10.4,4.3,30.52,NNW,339,0.0,1.0,76,0.00,,,0.00,Wunderground v.1.15,2013-02-01 07:05:00,
2013-02-01 01:11:00,10.7,4.9,30.52,NNW,339,0.0,0.0,77,0.00,,,0.00,Wunderground v.1.15,2013-02-01 07:11:00,
2013-02-01 01:17:00,10.7,4.3,30.51,NNW,339,0.0,0.0,75,0.00,,,0.00,Wunderground v.1.15,2013-02-01 07:17:00,
2013-02-01 01:22:00,10.7,4.6,30.51,NNW,339,0.0,0.0,76,0.00,,,0.00,Wunderground v.1.15,2013-02-01 07:22:00,
2013-02-01 01:28:00,10.7,4.9,30.51,NNW,339,0.0,0.0,77,0.00,,,0.00,Wunderground v.1.15,2013-02-01 07:28:00,
2013-02-01 01:34:00,10.9,4.8,30.50,NNW,339,0.0,0.0,76,0.00,,,0.00,Wunderground v.1.15,2013-02-01 07:34:00,
2013-02-01 01:40:00,10.9,4.8,30.50,NNW,339,0.0,0.0,76,0.00,,,0.00,Wunderground v.1.15,2013-02-01 07:40:00,
2013-02-01 01:45:00,11.0,5.2,30.50,NNW,339,0.0,0.0,77,0.00,,,0.00,Wunderground v.1.15,2013-02-01 07:45:00,
2013-02-01 01:51:00,11.1,5.0,30.50,NNW,339,0.0,0.0,76,0.00,,,0.00,Wunderground v.1.15,2013-02-01 07:51:00,
2013-02-01 01:57:00,11.1,4.4,30.49,NNW,339,0.0,0.0,74,0.00,,,0.00,Wunderground v.1.15,2013-02-01 07:57:00,
2013-02-01 02:02:00,11.0,4.6,30.50,NNW,339,0.0,1.0,75,0.00,,,0.00,Wunderground v.1.15,2013-02-01 08:02:00,
2013-02-01 02:07:00,11.1,4.7,30.50,NNW,339,0.0,1.0,75,0.00,,,0.00,Wunderground v.1.15,2013-02-01 08:07:00,
2013-02-01 02:12:00,11.1,4.7,30.50,NNW,339,0.0,1.0,75,0.00,,,0.00,Wunderground v.1.15,2013-02-01 08:12:00,
2013-02-01 02:17:00,11.1,4.1,30.50,NNW,339,0.0,1.0,73,0.00,,,0.00,Wunderground v.1.15,2013-02-01 08:17:00,
2013-02-01 02:22:00,10.9,3.9,30.50,NNW,339,0.0,1.0,73,0.00,,,0.00,Wunderground v.1.15,2013-02-01 08:22:00,
2013-02-01 02:27:00,11.0,4.3,30.49,NNW,339,1.0,2.0,74,0.00,,,0.00,Wunderground v.1.15,2013-02-01 08:27:00,
2013-02-01 02:32:00,11.0,4.0,30.49,NNW,339,1.0,1.0,73,0.00,,,0.00,Wunderground v.1.15,2013-02-01 08:32:00,
2013-02-01 02:37:00,11.0,4.0,30.50,NNW,339,0.0,1.0,73,0.00,,,0.00,Wunderground v.1.15,2013-02-01 08:37:00,
2013-02-01 02:42:00,11.0,4.0,30.49,NNW,339,0.0,1.0,73,0.00,,,0.00,Wunderground v.1.15,2013-02-01 08:42:00,
2013-02-01 02:47:00,11.0,4.0,30.49,NNW,339,0.0,2.0,73,0.00,,,0.00,Wunderground v.1.15,2013-02-01 08:47:00,
2013-02-01 02:52:00,11.1,4.4,30.49,NNW,339,0.0,1.0,74,0.00,,,0.00,Wunderground v.1.15,2013-02-01 08:52:00,
2013-02-01 02:57:00,11.1,4.4,30.49,NNW,339,0.0,2.0,74,0.00,,,0.00,Wunderground v.1.15,2013-02-01 08:57:00,
2013-02-01 03:02:00,11.0,4.3,30.48,NNW,339,1.0,2.0,74,0.00,,,0.00,Wunderground v.1.15,2013-02-01 09:02:00,
2013-02-01 03:07:00,11.0,4.3,30.48,NNW,339,1.0,2.0,74,0.00,,,0.00,Wunderground v.1.15,2013-02-01 09:07:00,
2013-02-01 03:12:00,11.0,4.3,30.48,NNW,339,2.0,3.0,74,0.00,,,0.00,Wunderground v.1.15,2013-02-01 09:12:00,
2013-02-01 03:17:00,10.9,4.2,30.47,NNW,339,1.0,3.0,74,0.00,,,0.00,Wunderground v.1.15,2013-02-01 09:17:00,
2013-02-01 03:22:00,10.9,4.2,30.47,NNW,339,0.0,1.0,74,0.00,,,0.00,Wunderground v.1.15,2013-02-01 09:22:00,
2013-02-01 03:27:00,10.8,4.1,30.47,NNW,339,1.0,3.0,74,0.00,,,0.00,Wunderground v.1.15,2013-02-01 09:27:00,
2013-02-01 03:32:00,10.7,4.0,30.46,NNW,339,1.0,2.0,74,0.00,,,0.00,Wunderground v.1.15,2013-02-01 09:32:00,
2013-02-01 03:37:00,10.5,3.3,30.46,NNW,339,1.0,2.0,72,0.00,,,0.00,Wunderground v.1.15,2013-02-01 09:37:00,
2013-02-01 03:42:00,10.5,3.6,30.47,NNW,339,0.0,1.0,73,0.00,,,0.00,Wunderground v.1.15,2013-02-01 09:42:00,
2013-02-01 03:47:00,10.7,3.7,30.47,NNW,339,0.0,1.0,73,0.00,,,0.00,Wunderground v.1.15,2013-02-01 09:47:00,
2013-02-01 03:52:00,10.7,3.7,30.47,NNW,339,0.0,1.0,73,0.00,,,0.00,Wunderground v.1.15,2013-02-01 09:52:00,
2013-02-01 03:57:00,10.8,4.1,30.47,NNW,339,0.0,1.0,74,0.00,,,0.00,Wunderground v.1.15,2013-02-01 09:57:00,
2013-02-01 04:02:00,10.9,3.6,30.47,NNW,339,0.0,1.0,72,0.00,,,0.00,Wunderground v.1.15,2013-02-01 10:02:00,
2013-02-01 04:07:00,10.9,3.3,30.47,NNW,339,1.0,2.0,71,0.00,,,0.00,Wunderground v.1.15,2013-02-01 10:07:00,
2013-02-01 04:12:00,10.8,3.2,30.47,NNW,339,0.0,1.0,71,0.00,,,0.00,Wunderground v.1.15,2013-02-01 10:12:00,
2013-02-01 04:17:00,10.8,2.9,30.48,NNW,339,0.0,1.0,70,0.00,,,0.00,Wunderground v.1.15,2013-02-01 10:17:00,
2013-02-01 04:22:00,10.8,2.9,30.47,NNW,339,0.0,0.0,70,0.00,,,0.00,Wunderground v.1.15,2013-02-01 10:22:00,
2013-02-01 04:27:00,10.7,3.1,30.48,NNW,339,0.0,1.0,71,0.00,,,0.00,Wunderground v.1.15,2013-02-01 10:27:00,
2013-02-01 04:32:00,10.8,2.6,30.47,NNW,339,0.0,1.0,69,0.00,,,0.00,Wunderground v.1.15,2013-02-01 10:32:00,
2013-02-01 04:37:00,10.7,2.5,30.47,NNW,339,1.0,2.0,69,0.00,,,0.00,Wunderground v.1.15,2013-02-01 10:37:00,
2013-02-01 04:42:00,10.5,2.0,30.47,NNW,339,1.0,2.0,68,0.00,,,0.00,Wunderground v.1.15,2013-02-01 10:42:00,
2013-02-01 04:47:00,10.3,1.8,30.47,NNW,339,0.0,2.0,68,0.00,,,0.00,Wunderground v.1.15,2013-02-01 10:47:00,
2013-02-01 04:52:00,10.1,1.9,30.48,NNW,339,0.0,1.0,69,0.00,,,0.00,Wunderground v.1.15,2013-02-01 10:52:00,
2013-02-01 04:57:00,10.0,1.9,30.47,NNW,339,1.0,1.0,69,0.00,,,0.00,Wunderground v.1.15,2013-02-01 10:57:00,
2013-02-01 05:02:00,10.1,2.6,30.48,NNW,339,1.0,1.0,71,0.00,,,0.00,Wunderground v.1.15,2013-02-01 11:02:00,
2013-02-01 05:07:00,10.2,2.4,30.48,NNW,339,0.0,2.0,70,0.00,,,0.00,Wunderground v.1.15,2013-02-01 11:07:00,
2013-02-01 05:12:00,10.1,2.3,30.48,NNW,339,2.0,2.0,70,0.00,,,0.00,Wunderground v.1.15,2013-02-01 11:12:00,
2013-02-01 05:17:00,10.1,1.9,30.48,NNW,339,0.0,3.0,69,0.00,,,0.00,Wunderground v.1.15,2013-02-01 11:17:00,
2013-02-01 05:22:00,10.2,2.4,30.48,NNW,339,0.0,1.0,70,0.00,,,0.00,Wunderground v.1.15,2013-02-01 11:22:00,
2013-02-01 05:27:00,10.2,2.4,30.48,NNW,339,2.0,2.0,70,0.00,,,0.00,Wunderground v.1.15,2013-02-01 11:27:00,
2013-02-01 05:32:00,10.2,2.0,30.48,NNW,339,0.0,1.0,69,0.00,,,0.00,Wunderground v.1.15,2013-02-01 11:32:00,
2013-02-01 05:37:00,10.3,2.1,30.48,NNW,339,0.0,1.0,69,0.00,,,0.00,Wunderground v.1.15,2013-02-01 11:37:00,
2013-02-01 05:42:00,10.1,1.6,30.48,NNW,339,0.0,1.0,68,0.00,,,0.00,Wunderground v.1.15,2013-02-01 11:42:00,
2013-02-01 05:47:00,9.9,2.1,30.48,NNW,339,0.0,2.0,70,0.00,,,0.00,Wunderground v.1.15,2013-02-01 11:47:00,
2013-02-01 05:52:00,9.7,3.1,30.49,NNW,339,0.0,1.0,74,0.00,,,0.00,Wunderground v.1.15,2013-02-01 11:52:00,
2013-02-01 05:57:00,9.6,3.6,30.49,NNW,339,0.0,2.0,76,0.00,,,0.00,Wunderground v.1.15,2013-02-01 11:57:00,
2013-02-01 06:02:00,9.5,3.7,30.49,NNW,339,0.0,1.0,77,0.00,,,0.00,Wunderground v.1.15,2013-02-01 12:02:00,
2013-02-01 06:08:00,9.4,3.6,30.50,NNW,339,1.0,1.0,77,0.00,,,0.00,Wunderground v.1.15,2013-02-01 12:08:00,
2013-02-01 06:13:00,9.3,3.8,30.50,NNW,339,0.0,1.0,78,0.00,,,0.00,Wunderground v.1.15,2013-02-01 12:13:00,
2013-02-01 06:18:00,9.2,3.2,30.50,NNW,339,0.0,1.0,76,0.00,,,0.00,Wunderground v.1.15,2013-02-01 12:18:00,
2013-02-01 06:23:00,9.3,3.8,30.50,NNW,339,0.0,0.0,78,0.00,,,0.00,Wunderground v.1.15,2013-02-01 12:23:00,
2013-02-01 06:28:00,9.5,4.0,30.50,NNW,339,1.0,1.0,78,0.00,,,0.00,Wunderground v.1.15,2013-02-01 12:28:00,
2013-02-01 06:33:00,9.6,4.4,30.50,NNW,339,0.0,1.0,79,0.00,,,0.00,Wunderground v.1.15,2013-02-01 12:33:00,
2013-02-01 06:38:00,9.7,4.2,30.50,NNW,339,0.0,1.0,78,0.00,,,0.00,Wunderground v.1.15,2013-02-01 12:38:00,
2013-02-01 06:43:00,9.6,4.1,30.49,NNW,339,0.0,1.0,78,0.00,,,0.00,Wunderground v.1.15,2013-02-01 12:43:00,
2013-02-01 06:48:00,9.6,4.4,30.50,NNW,339,0.0,1.0,79,0.00,,,0.00,Wunderground v.1.15,2013-02-01 12:48:00,
2013-02-01 06:53:00,9.5,4.3,30.50,NNW,339,0.0,1.0,79,0.00,,,0.00,Wunderground v.1.15,2013-02-01 12:53:00,
2013-02-01 06:58:00,9.5,4.0,30.50,NNW,339,0.0,1.0,78,0.00,,,0.00,Wunderground v.1.15,2013-02-01 12:58:00,
2013-02-01 07:03:00,9.4,3.9,30.50,NNW,339,0.0,2.0,78,0.00,,,0.00,Wunderground v.1.15,2013-02-01 13:03:00,
2013-02-01 07:08:00,9.4,4.2,30.50,NNW,339,0.0,2.0,79,0.00,,,0.00,Wunderground v.1.15,2013-02-01 13:08:00,
2013-02-01 07:13:00,9.3,3.5,30.50,NNW,339,0.0,2.0,77,0.00,,,0.00,Wunderground v.1.15,2013-02-01 13:13:00,
2013-02-01 07:18:00,9.2,3.7,30.50,NNW,339,0.0,2.0,78,0.00,,,0.00,Wunderground v.1.15,2013-02-01 13:18:00,
2013-02-01 07:23:00,9.2,3.4,30.50,NNW,339,0.0,1.0,77,0.00,,,0.00,Wunderground v.1.15,2013-02-01 13:23:00,
2013-02-01 07:28:00,9.1,3.1,30.50,NNW,339,0.0,2.0,76,0.00,,,0.00,Wunderground v.1.15,2013-02-01 13:28:00,
2013-02-01 07:33:00,9.1,3.1,30.50,NNW,339,0.0,0.0,76,0.00,,,0.00,Wunderground v.1.15,2013-02-01 13:33:00,
2013-02-01 07:38:00,9.1,3.4,30.50,NNW,339,1.0,2.0,77,0.00,,,0.00,Wunderground v.1.15,2013-02-01 13:38:00,
2013-02-01 07:43:00,9.0,3.3,30.49,NNW,339,1.0,2.0,77,0.00,,,0.00,Wunderground v.1.15,2013-02-01 13:43:00,
2013-02-01 07:48:00,9.1,3.1,30.50,NNW,339,0.0,2.0,76,0.00,,,0.00,Wunderground v.1.15,2013-02-01 13:48:00,
2013-02-01 07:53:00,9.1,3.1,30.49,NNW,339,1.0,1.0,76,0.00,,,0.00,Wunderground v.1.15,2013-02-01 13:53:00,
2013-02-01 07:58:00,9.4,3.4,30.49,NNW,339,1.0,2.0,76,0.00,,,0.00,Wunderground v.1.15,2013-02-01 13:58:00,
2013-02-01 08:03:00,9.7,3.9,30.49,NNW,339,0.0,2.0,77,0.00,,,0.00,Wunderground v.1.15,2013-02-01 14:03:00,
2013-02-01 08:08:00,10.0,3.9,30.49,NNW,339,2.0,2.0,76,0.00,,,0.00,Wunderground v.1.15,2013-02-01 14:08:00,
2013-02-01 08:13:00,10.2,4.1,30.49,NNW,339,1.0,3.0,76,0.00,,,0.00,Wunderground v.1.15,2013-02-01 14:13:00,
2013-02-01 08:18:00,10.5,4.1,30.49,NNW,339,2.0,3.0,75,0.00,,,0.00,Wunderground v.1.15,2013-02-01 14:18:00,
2013-02-01 08:23:00,10.8,3.8,30.49,NNW,339,2.0,3.0,73,0.00,,,0.00,Wunderground v.1.15,2013-02-01 14:23:00,
2013-02-01 08:28:00,11.2,4.2,30.49,SSE,150,2.0,5.0,73,0.00,,,0.00,Wunderground v.1.15,2013-02-01 14:28:00,
2013-02-01 08:33:00,11.5,4.2,30.49,SE,136,3.0,5.0,72,0.00,,,0.00,Wunderground v.1.15,2013-02-01 14:33:00,
2013-02-01 08:38:00,12.0,4.7,30.49,SSE,160,1.0,5.0,72,0.00,,,0.00,Wunderground v.1.15,2013-02-01 14:38:00,
2013-02-01 08:43:00,12.4,4.5,30.49,SE,138,1.0,5.0,70,0.00,,,0.00,Wunderground v.1.15,2013-02-01 14:43:00,
2013-02-01 08:48:00,13.0,5.0,30.49,SSW,205,0.0,5.0,70,0.00,,,0.00,Wunderground v.1.15,2013-02-01 14:48:00,
2013-02-01 08:53:00,13.6,5.0,30.49,SE,140,2.0,4.0,68,0.00,,,0.00,Wunderground v.1.15,2013-02-01 14:53:00,
2013-02-01 08:58:00,13.8,4.9,30.49,ESE,111,2.0,6.0,67,0.00,,,0.00,Wunderground v.1.15,2013-02-01 14:58:00,
2013-02-01 09:03:00,14.1,5.1,30.49,South,177,2.0,5.0,67,0.00,,,0.00,Wunderground v.1.15,2013-02-01 15:03:00,
2013-02-01 09:08:00,15.1,6.1,30.49,SSE,157,0.0,5.0,67,0.00,,,0.00,Wunderground v.1.15,2013-02-01 15:08:00,
2013-02-01 09:13:00,16.1,6.7,30.49,SW,232,2.0,5.0,66,0.00,,,0.00,Wunderground v.1.15,2013-02-01 15:13:00,
2013-02-01 09:18:00,16.7,6.6,30.49,SW,217,3.0,6.0,64,0.00,,,0.00,Wunderground v.1.15,2013-02-01 15:18:00,
2013-02-01 09:23:00,16.9,6.8,30.48,SE,140,2.0,5.0,64,0.00,,,0.00,Wunderground v.1.15,2013-02-01 15:23:00,
2013-02-01 09:28:00,17.2,7.1,30.48,South,178,2.0,7.0,64,0.00,,,0.00,Wunderground v.1.15,2013-02-01 15:28:00,
2013-02-01 09:33:00,17.2,7.1,30.48,SSE,150,3.0,7.0,64,0.00,,,0.00,Wunderground v.1.15,2013-02-01 15:33:00,
2013-02-01 09:38:00,17.3,7.2,30.48,SW,221,2.0,8.0,64,0.00,,,0.00,Wunderground v.1.15,2013-02-01 15:38:00,
2013-02-01 09:43:00,17.6,7.5,30.48,SSE,157,4.0,8.0,64,0.00,,,0.00,Wunderground v.1.15,2013-02-01 15:43:00,
2013-02-01 09:48:00,17.5,7.7,30.48,SSE,150,5.0,8.0,65,0.00,,,0.00,Wunderground v.1.15,2013-02-01 15:48:00,
2013-02-01 09:53:00,17.6,7.8,30.47,SW,225,3.0,11.0,65,0.00,,,0.00,Wunderground v.1.15,2013-02-01 15:53:00,
2013-02-01 09:58:00,18.2,8.7,30.47,SW,217,2.0,11.0,66,0.00,,,0.00,Wunderground v.1.15,2013-02-01 15:58:00,
2013-02-01 10:03:00,18.8,8.6,30.47,SSE,156,4.0,9.0,64,0.00,,,0.00,Wunderground v.1.15,2013-02-01 16:03:00,
2013-02-01 10:08:00,19.2,9.4,30.47,South,182,2.0,9.0,65,0.00,,,0.00,Wunderground v.1.15,2013-02-01 16:08:00,
2013-02-01 10:13:00,20.0,9.4,30.46,SSW,202,3.0,6.0,63,0.00,,,0.00,Wunderground v.1.15,2013-02-01 16:13:00,
2013-02-01 10:18:00,20.7,9.4,30.46,WSW,248,5.0,7.0,61,0.00,,,0.00,Wunderground v.1.15,2013-02-01 16:18:00,
2013-02-01 10:23:00,20.9,9.2,30.45,SSE,165,2.0,7.0,60,0.00,,,0.00,Wunderground v.1.15,2013-02-01 16:23:00,
2013-02-01 10:28:00,21.0,8.9,30.45,SSE,162,3.0,8.0,59,0.00,,,0.00,Wunderground v.1.15,2013-02-01 16:28:00,
2013-02-01 10:33:00,21.2,9.1,30.45,South,182,3.0,8.0,59,0.00,,,0.00,Wunderground v.1.15,2013-02-01 16:33:00,
2013-02-01 10:38:00,21.4,9.3,30.45,SE,130,3.0,8.0,59,0.00,,,0.00,Wunderground v.1.15,2013-02-01 16:38:00,
2013-02-01 10:43:00,21.8,9.7,30.45,SE,142,5.0,6.0,59,0.00,,,0.00,Wunderground v.1.15,2013-02-01 16:43:00,
2013-02-01 10:48:00,22.0,9.8,30.44,SSE,155,8.0,9.0,59,0.00,,,0.00,Wunderground v.1.15,2013-02-01 16:48:00,
2013-02-01 10:53:00,22.5,10.3,30.44,South,182,5.0,9.0,59,0.00,,,0.00,Wunderground v.1.15,2013-02-01 16:53:00,
2013-02-01 10:58:00,23.3,10.3,30.44,South,171,2.0,9.0,57,0.00,,,0.00,Wunderground v.1.15,2013-02-01 16:58:00,
2013-02-01 11:03:00,23.3,9.9,30.44,SW,236,5.0,10.0,56,0.00,,,0.00,Wunderground v.1.15,2013-02-01 17:03:00,
2013-02-01 11:08:00,23.0,10.4,30.44,SSW,205,2.0,10.0,58,0.00,,,0.00,Wunderground v.1.15,2013-02-01 17:08:00,
2013-02-01 11:13:00,23.3,10.3,30.43,WSW,245,2.0,8.0,57,0.00,,,0.00,Wunderground v.1.15,2013-02-01 17:13:00,
2013-02-01 11:18:00,23.3,10.7,30.43,East,80,1.0,9.0,58,0.00,,,0.00,Wunderground v.1.15,2013-02-01 17:18:00,
2013-02-01 11:23:00,23.1,10.5,30.43,West,259,6.0,10.0,58,0.00,,,0.00,Wunderground v.1.15,2013-02-01 17:23:00,
2013-02-01 11:28:00,23.3,10.7,30.43,South,174,3.0,10.0,58,0.00,,,0.00,Wunderground v.1.15,2013-02-01 17:28:00,
2013-02-01 11:33:00,23.3,9.9,30.43,SSE,148,5.0,11.0,56,0.00,,,0.00,Wunderground v.1.15,2013-02-01 17:33:00,
2013-02-01 11:38:00,23.7,10.3,30.43,SSE,161,6.0,11.0,56,0.00,,,0.00,Wunderground v.1.15,2013-02-01 17:38:00,
2013-02-01 11:43:00,23.9,10.5,30.42,South,182,1.0,9.0,56,0.00,,,0.00,Wunderground v.1.15,2013-02-01 17:43:00,
2013-02-01 11:48:00,24.3,11.2,30.42,SSE,160,4.0,9.0,57,0.00,,,0.00,Wunderground v.1.15,2013-02-01 17:48:00,
2013-02-01 11:53:00,24.3,10.4,30.42,SSW,205,5.0,8.0,55,0.00,,,0.00,Wunderground v.1.15,2013-02-01 17:53:00,
2013-02-01 11:58:00,23.8,10.8,30.42,SSE,165,5.0,8.0,57,0.00,,,0.00,Wunderground v.1.15,2013-02-01 17:58:00,
2013-02-01 12:03:00,23.5,10.9,30.41,WSW,245,3.0,10.0,58,0.00,,,0.00,Wunderground v.1.15,2013-02-01 18:03:00,
2013-02-01 12:08:00,23.3,11.1,30.41,WSW,238,5.0,10.0,59,0.00,,,0.00,Wunderground v.1.15,2013-02-01 18:08:00,
2013-02-01 12:13:00,23.6,11.7,30.41,SW,217,3.0,9.0,60,0.00,,,0.00,Wunderground v.1.15,2013-02-01 18:13:00,
2013-02-01 12:18:00,24.0,11.7,30.40,SW,229,4.0,11.0,59,0.00,,,0.00,Wunderground v.1.15,2013-02-01 18:18:00,
2013-02-01 12:23:00,24.2,11.9,30.40,South,170,4.0,9.0,59,0.00,,,0.00,Wunderground v.1.15,2013-02-01 18:23:00,
2013-02-01 12:28:00,24.7,12.0,30.39,SSE,165,3.0,9.0,58,0.00,,,0.00,Wunderground v.1.15,2013-02-01 18:28:00,
2013-02-01 12:33:00,24.7,12.0,30.39,South,171,5.0,8.0,58,0.00,,,0.00,Wunderground v.1.15,2013-02-01 18:33:00,
2013-02-01 12:38:00,24.9,12.2,30.38,South,173,2.0,12.0,58,0.00,,,0.00,Wunderground v.1.15,2013-02-01 18:38:00,
2013-02-01 12:43:00,25.3,12.2,30.38,ESE,121,2.0,11.0,57,0.00,,,0.00,Wunderground v.1.15,2013-02-01 18:43:00,
2013-02-01 12:48:00,25.3,12.2,30.38,SSW,201,6.0,11.0,57,0.00,,,0.00,Wunderground v.1.15,2013-02-01 18:48:00,
2013-02-01 12:53:00,25.7,12.9,30.38,WSW,254,3.0,5.0,58,0.00,,,0.00,Wunderground v.1.15,2013-02-01 18:53:00,
2013-02-01 12:58:00,26.2,13.8,30.38,SW,230,1.0,5.0,59,0.00,,,0.00,Wunderground v.1.15,2013-02-01 18:58:00,
2013-02-01 13:03:00,26.3,13.1,30.37,SE,124,4.0,8.0,57,0.00,,,0.00,Wunderground v.1.15,2013-02-01 19:03:00,
2013-02-01 13:08:00,26.3,13.1,30.37,SSW,194,5.0,9.0,57,0.00,,,0.00,Wunderground v.1.15,2013-02-01 19:08:00,
2013-02-01 13:13:00,26.3,13.1,30.37,SW,230,1.0,10.0,57,0.00,,,0.00,Wunderground v.1.15,2013-02-01 19:13:00,
2013-02-01 13:18:00,26.3,13.5,30.37,South,183,3.0,10.0,58,0.00,,,0.00,Wunderground v.1.15,2013-02-01 19:18:00,
2013-02-01 13:23:00,26.6,13.8,30.36,SW,217,2.0,7.0,58,0.00,,,0.00,Wunderground v.1.15,2013-02-01 19:23:00,
2013-02-01 13:28:00,26.9,13.7,30.36,SSW,201,4.0,12.0,57,0.00,,,0.00,Wunderground v.1.15,2013-02-01 19:28:00,
2013-02-01 13:33:00,27.2,14.4,30.36,SW,229,1.0,4.0,58,0.00,,,0.00,Wunderground v.1.15,2013-02-01 19:33:00,
2013-02-01 13:38:00,27.6,13.5,30.36,SW,219,2.0,6.0,55,0.00,,,0.00,Wunderground v.1.15,2013-02-01 19:38:00,
2013-02-01 13:43:00,27.6,13.5,30.35,SSW,195,2.0,9.0,55,0.00,,,0.00,Wunderground v.1.15,2013-02-01 19:43:00,
2013-02-01 13:48:00,27.6,13.9,30.35,SE,142,4.0,9.0,56,0.00,,,0.00,Wunderground v.1.15,2013-02-01 19:48:00,
2013-02-01 13:53:00,27.7,13.6,30.35,SSE,159,4.0,7.0,55,0.00,,,0.00,Wunderground v.1.15,2013-02-01 19:53:00,
2013-02-01 13:58:00,27.7,13.2,30.34,SSW,207,3.0,9.0,54,0.00,,,0.00,Wunderground v.1.15,2013-02-01 19:58:00,
2013-02-01 14:03:00,27.8,13.3,30.34,South,179,3.0,8.0,54,0.00,,,0.00,Wunderground v.1.15,2013-02-01 20:03:00,
2013-02-01 14:08:00,27.9,13.8,30.33,SE,136,2.0,8.0,55,0.00,,,0.00,Wunderground v.1.15,2013-02-01 20:08:00,
2013-02-01 14:13:00,27.9,13.4,30.33,SSE,157,5.0,8.0,54,0.00,,,0.00,Wunderground v.1.15,2013-02-01 20:13:00,
2013-02-01 14:18:00,28.0,13.5,30.33,SSE,161,1.0,8.0,54,0.00,,,0.00,Wunderground v.1.15,2013-02-01 20:18:00,
2013-02-01 14:23:00,28.3,12.9,30.33,SW,221,2.0,9.0,52,0.00,,,0.00,Wunderground v.1.15,2013-02-01 20:23:00,
2013-02-01 14:28:00,28.1,12.7,30.33,SW,236,3.0,10.0,52,0.00,,,0.00,Wunderground v.1.15,2013-02-01 20:28:00,
2013-02-01 14:33:00,28.5,13.5,30.32,SSW,198,2.0,11.0,53,0.00,,,0.00,Wunderground v.1.15,2013-02-01 20:33:00,
2013-02-01 14:38:00,28.5,13.1,30.32,SE,144,2.0,11.0,52,0.00,,,0.00,Wunderground v.1.15,2013-02-01 20:38:00,
2013-02-01 14:43:00,28.7,13.3,30.32,SW,223,2.0,12.0,52,0.00,,,0.00,Wunderground v.1.15,2013-02-01 20:43:00,
2013-02-01 14:48:00,28.5,13.9,30.32,SSE,161,4.0,12.0,54,0.00,,,0.00,Wunderground v.1.15,2013-02-01 20:48:00,
2013-02-01 14:53:00,28.4,13.9,30.31,SSW,195,5.0,8.0,54,0.00,,,0.00,Wunderground v.1.15,2013-02-01 20:53:00,
2013-02-01 14:58:00,28.4,13.9,30.31,ESE,123,4.0,8.0,54,0.00,,,0.00,Wunderground v.1.15,2013-02-01 20:58:00,
2013-02-01 15:03:00,28.4,14.3,30.31,SE,135,2.0,5.0,55,0.00,,,0.00,Wunderground v.1.15,2013-02-01 21:03:00,
2013-02-01 15:08:00,28.3,13.8,30.31,SSW,209,4.0,8.0,54,0.00,,,0.00,Wunderground v.1.15,2013-02-01 21:08:00,
2013-02-01 15:13:00,28.2,13.7,30.31,WSW,246,3.0,8.0,54,0.00,,,0.00,Wunderground v.1.15,2013-02-01 21:13:00,
2013-02-01 15:18:00,28.2,14.1,30.31,WSW,251,3.0,8.0,55,0.00,,,0.00,Wunderground v.1.15,2013-02-01 21:18:00,
2013-02-01 15:23:00,28.4,13.9,30.30,SW,236,4.0,7.0,54,0.00,,,0.00,Wunderground v.1.15,2013-02-01 21:23:00,
2013-02-01 15:29:00,28.5,14.4,30.30,SW,232,4.0,9.0,55,0.00,,,0.00,Wunderground v.1.15,2013-02-01 21:29:00,
2013-02-01 15:34:00,28.8,14.2,30.30,East,100,3.0,7.0,54,0.00,,,0.00,Wunderground v.1.15,2013-02-01 21:34:00,
2013-02-01 15:39:00,28.9,14.3,30.30,South,177,3.0,7.0,54,0.00,,,0.00,Wunderground v.1.15,2013-02-01 21:39:00,
2013-02-01 15:44:00,28.7,14.1,30.30,SSW,192,1.0,6.0,54,0.00,,,0.00,Wunderground v.1.15,2013-02-01 21:44:00,
2013-02-01 15:49:00,28.6,14.5,30.30,SE,138,5.0,7.0,55,0.00,,,0.00,Wunderground v.1.15,2013-02-01 21:49:00,
2013-02-01 15:55:00,28.7,15.0,30.29,South,170,1.0,7.0,56,0.00,,,0.00,Wunderground v.1.15,2013-02-01 21:55:00,
2013-02-01 16:00:00,28.7,14.6,30.29,SW,232,2.0,4.0,55,0.00,,,0.00,Wunderground v.1.15,2013-02-01 22:00:00,
2013-02-01 16:05:00,28.5,14.4,30.29,South,169,1.0,6.0,55,0.00,,,0.00,Wunderground v.1.15,2013-02-01 22:05:00,
2013-02-01 16:10:00,28.5,14.8,30.29,SSE,154,5.0,5.0,56,0.00,,,0.00,Wunderground v.1.15,2013-02-01 22:10:00,
2013-02-01 16:15:00,28.4,15.5,30.29,SE,134,3.0,6.0,58,0.00,,,0.00,Wunderground v.1.15,2013-02-01 22:15:00,
2013-02-01 16:20:00,28.4,15.5,30.29,South,179,2.0,3.0,58,0.00,,,0.00,Wunderground v.1.15,2013-02-01 22:20:00,
2013-02-01 16:25:00,28.5,15.6,30.29,SSE,167,4.0,6.0,58,0.00,,,0.00,Wunderground v.1.15,2013-02-01 22:25:00,
2013-02-01 16:30:00,28.5,15.6,30.29,SSW,194,4.0,4.0,58,0.00,,,0.00,Wunderground v.1.15,2013-02-01 22:30:00,
2013-02-01 16:35:00,28.6,15.7,30.28,SSE,168,3.0,6.0,58,0.00,,,0.00,Wunderground v.1.15,2013-02-01 22:35:00,
2013-02-01 16:40:00,28.7,15.8,30.27,South,178,2.0,5.0,58,0.00,,,0.00,Wunderground v.1.15,2013-02-01 22:40:00,
2013-02-01 16:45:00,28.8,15.9,30.27,South,175,4.0,7.0,58,0.00,,,0.00,Wunderground v.1.15,2013-02-01 22:45:00,
2013-02-01 16:50:00,28.9,16.0,30.26,SSE,156,2.0,4.0,58,0.00,,,0.00,Wunderground v.1.15,2013-02-01 22:50:00,
2013-02-01 16:55:00,28.8,15.9,30.26,SE,146,3.0,10.0,58,0.00,,,0.00,Wunderground v.1.15,2013-02-01 22:55:00,
2013-02-01 17:00:00,28.8,15.9,30.25,SSE,165,3.0,4.0,58,0.00,,,0.00,Wunderground v.1.15,2013-02-01 23:00:00,
2013-02-01 17:05:00,28.8,15.9,30.25,South,169,3.0,8.0,58,0.00,,,0.00,Wunderground v.1.15,2013-02-01 23:05:00,
2013-02-01 17:10:00,28.8,15.9,30.25,SE,143,3.0,8.0,58,0.00,,,0.00,Wunderground v.1.15,2013-02-01 23:10:00,
2013-02-01 17:15:00,28.8,15.9,30.25,South,190,1.0,8.0,58,0.00,,,0.00,Wunderground v.1.15,2013-02-01 23:15:00,
2013-02-01 17:20:00,28.9,16.4,30.26,SW,227,0.0,2.0,59,0.00,,,0.00,Wunderground v.1.15,2013-02-01 23:20:00,
2013-02-01 17:25:00,28.9,16.0,30.25,SW,222,3.0,4.0,58,0.00,,,0.00,Wunderground v.1.15,2013-02-01 23:25:00,
2013-02-01 17:30:00,28.7,15.4,30.25,SE,135,7.0,8.0,57,0.00,,,0.00,Wunderground v.1.15,2013-02-01 23:30:00,
2013-02-01 17:35:00,28.5,15.2,30.24,SSE,165,3.0,9.0,57,0.00,,,0.00,Wunderground v.1.15,2013-02-01 23:35:00,
2013-02-01 17:40:00,28.3,14.6,30.24,SE,132,3.0,8.0,56,0.00,,,0.00,Wunderground v.1.15,2013-02-01 23:40:00,
2013-02-01 17:45:00,28.1,14.4,30.24,SSW,206,2.0,8.0,56,0.00,,,0.00,Wunderground v.1.15,2013-02-01 23:45:00,
2013-02-01 17:50:00,28.0,14.7,30.24,South,188,1.0,3.0,57,0.00,,,0.00,Wunderground v.1.15,2013-02-01 23:50:00,
2013-02-01 17:55:00,27.9,14.6,30.24,SE,146,4.0,10.0,57,0.00,,,0.00,Wunderground v.1.15,2013-02-01 23:55:00,
2013-02-01 18:00:00,27.7,14.4,30.24,SSW,199,1.0,3.0,57,0.00,,,0.00,Wunderground v.1.15,2013-02-02 00:00:00,
2013-02-01 18:05:00,27.7,14.4,30.25,SSE,165,0.0,4.0,57,0.00,,,0.00,Wunderground v.1.15,2013-02-02 00:05:00,
2013-02-01 18:10:00,27.6,14.3,30.26,South,180,1.0,4.0,57,0.00,,,0.00,Wunderground v.1.15,2013-02-02 00:10:00,
2013-02-01 18:15:00,27.5,14.6,30.26,SW,230,7.0,7.0,58,0.00,,,0.00,Wunderground v.1.15,2013-02-02 00:15:00,
2013-02-01 18:20:00,27.4,14.5,30.26,WSW,239,3.0,4.0,58,0.00,,,0.00,Wunderground v.1.15,2013-02-02 00:20:00,
2013-02-01 18:25:00,27.3,14.8,30.26,SSW,209,3.0,4.0,59,0.00,,,0.00,Wunderground v.1.15,2013-02-02 00:25:00,
2013-02-01 18:30:00,27.1,14.7,30.25,SSW,203,2.0,6.0,59,0.00,,,0.00,Wunderground v.1.15,2013-02-02 00:30:00,
2013-02-01 18:35:00,27.0,14.9,30.25,South,181,4.0,6.0,60,0.00,,,0.00,Wunderground v.1.15,2013-02-02 00:35:00,
2013-02-01 18:40:00,27.0,14.9,30.25,SSW,206,1.0,3.0,60,0.00,,,0.00,Wunderground v.1.15,2013-02-02 00:40:00,
2013-02-01 18:45:00,26.9,14.9,30.25,South,171,1.0,5.0,60,0.00,,,0.00,Wunderground v.1.15,2013-02-02 00:45:00,
2013-02-01 18:50:00,26.8,14.8,30.25,South,175,2.0,5.0,60,0.00,,,0.00,Wunderground v.1.15,2013-02-02 00:50:00,
2013-02-01 18:55:00,26.7,14.7,30.24,SW,215,2.0,5.0,60,0.00,,,0.00,Wunderground v.1.15,2013-02-02 00:55:00,
2013-02-01 19:00:00,26.7,15.0,30.24,South,172,2.0,4.0,61,0.00,,,0.00,Wunderground v.1.15,2013-02-02 01:00:00,
2013-02-01 19:05:00,26.7,15.0,30.24,SSE,157,1.0,4.0,61,0.00,,,0.00,Wunderground v.1.15,2013-02-02 01:05:00,
2013-02-01 19:10:00,26.6,15.3,30.24,SSE,148,1.0,5.0,62,0.00,,,0.00,Wunderground v.1.15,2013-02-02 01:10:00,
2013-02-01 19:15:00,26.6,15.3,30.24,SSW,211,1.0,5.0,62,0.00,,,0.00,Wunderground v.1.15,2013-02-02 01:15:00,
2013-02-01 19:20:00,26.5,15.2,30.24,South,173,2.0,4.0,62,0.00,,,0.00,Wunderground v.1.15,2013-02-02 01:20:00,
2013-02-01 19:25:00,26.5,15.6,30.24,SSE,164,3.0,6.0,63,0.00,,,0.00,Wunderground v.1.15,2013-02-02 01:25:00,
2013-02-01 19:30:00,26.4,15.5,30.24,ESE,117,3.0,5.0,63,0.00,,,0.00,Wunderground v.1.15,2013-02-02 01:30:00,
2013-02-01 19:35:00,26.3,15.4,30.23,South,180,2.0,7.0,63,0.00,,,0.00,Wunderground v.1.15,2013-02-02 01:35:00,
2013-02-01 19:40:00,26.2,14.9,30.23,SE,142,5.0,5.0,62,0.00,,,0.00,Wunderground v.1.15,2013-02-02 01:40:00,
2013-02-01 19:45:00,26.2,14.9,30.24,SW,225,4.0,8.0,62,0.00,,,0.00,Wunderground v.1.15,2013-02-02 01:45:00,
2013-02-01 19:50:00,26.1,14.8,30.23,WSW,241,4.0,9.0,62,0.00,,,0.00,Wunderground v.1.15,2013-02-02 01:50:00,
2013-02-01 19:55:00,26.0,14.8,30.23,SSE,168,3.0,9.0,62,0.00,,,0.00,Wunderground v.1.15,2013-02-02 01:55:00,
2013-02-01 20:00:00,26.0,14.8,30.23,South,180,3.0,5.0,62,0.00,,,0.00,Wunderground v.1.15,2013-02-02 02:00:00,
2013-02-01 20:05:00,25.9,14.3,30.23,South,169,2.0,6.0,61,0.00,,,0.00,Wunderground v.1.15,2013-02-02 02:05:00,
2013-02-01 20:10:00,25.8,14.2,30.23,SSE,166,3.0,3.0,61,0.00,,,0.00,Wunderground v.1.15,2013-02-02 02:10:00,
2013-02-01 20:15:00,25.8,14.2,30.23,South,178,2.0,7.0,61,0.00,,,0.00,Wunderground v.1.15,2013-02-02 02:15:00,
2013-02-01 20:20:00,25.7,14.5,30.23,SW,226,4.0,5.0,62,0.00,,,0.00,Wunderground v.1.15,2013-02-02 02:20:00,
2013-02-01 20:25:00,25.6,14.0,30.23,SSW,197,4.0,9.0,61,0.00,,,0.00,Wunderground v.1.15,2013-02-02 02:25:00,
2013-02-01 20:30:00,25.6,14.4,30.23,SSE,157,1.0,5.0,62,0.00,,,0.00,Wunderground v.1.15,2013-02-02 02:30:00,
2013-02-01 20:35:00,25.5,14.3,30.23,South,174,2.0,5.0,62,0.00,,,0.00,Wunderground v.1.15,2013-02-02 02:35:00,
2013-02-01 20:40:00,25.4,13.8,30.23,South,179,1.0,4.0,61,0.00,,,0.00,Wunderground v.1.15,2013-02-02 02:40:00,
2013-02-01 20:45:00,25.4,13.8,30.23,SSW,198,1.0,8.0,61,0.00,,,0.00,Wunderground v.1.15,2013-02-02 02:45:00,
2013-02-01 20:50:00,25.4,13.8,30.23,SSW,202,1.0,6.0,61,0.00,,,0.00,Wunderground v.1.15,2013-02-02 02:50:00,
2013-02-01 20:55:00,25.4,14.2,30.23,WSW,257,7.0,7.0,62,0.00,,,0.00,Wunderground v.1.15,2013-02-02 02:55:00,
2013-02-01 21:00:00,25.3,14.1,30.23,South,184,1.0,3.0,62,0.00,,,0.00,Wunderground v.1.15,2013-02-02 03:00:00,
2013-02-01 21:05:00,25.3,14.1,30.23,SW,227,1.0,5.0,62,0.00,,,0.00,Wunderground v.1.15,2013-02-02 03:05:00,
2013-02-01 21:10:00,25.4,14.2,30.23,South,181,2.0,5.0,62,0.00,,,0.00,Wunderground v.1.15,2013-02-02 03:10:00,
2013-02-01 21:15:00,25.4,14.2,30.23,SSE,164,3.0,6.0,62,0.00,,,0.00,Wunderground v.1.15,2013-02-02 03:15:00,
2013-02-01 21:20:00,25.4,14.2,30.22,SSW,201,1.0,2.0,62,0.00,,,0.00,Wunderground v.1.15,2013-02-02 03:20:00,
2013-02-01 21:25:00,25.4,14.2,30.22,SSW,213,2.0,6.0,62,0.00,,,0.00,Wunderground v.1.15,2013-02-02 03:25:00,
2013-02-01 21:30:00,25.4,14.5,30.22,SSW,193,0.0,2.0,63,0.00,,,0.00,Wunderground v.1.15,2013-02-02 03:30:00,
2013-02-01 21:35:00,25.4,14.2,30.22,SSE,160,2.0,7.0,62,0.00,,,0.00,Wunderground v.1.15,2013-02-02 03:35:00,
2013-02-01 21:40:00,25.4,14.2,30.22,SSE,158,2.0,4.0,62,0.00,,,0.00,Wunderground v.1.15,2013-02-02 03:40:00,
2013-02-01 21:45:00,25.5,14.6,30.22,SW,227,1.0,4.0,63,0.00,,,0.00,Wunderground v.1.15,2013-02-02 03:45:00,
2013-02-01 21:50:00,25.5,14.3,30.22,SSE,155,2.0,4.0,62,0.00,,,0.00,Wunderground v.1.15,2013-02-02 03:50:00,
2013-02-01 21:55:00,25.5,14.3,30.22,SSE,163,4.0,5.0,62,0.00,,,0.00,Wunderground v.1.15,2013-02-02 03:55:00,
2013-02-01 22:00:00,25.6,14.7,30.22,SSE,167,2.0,4.0,63,0.00,,,0.00,Wunderground v.1.15,2013-02-02 04:00:00,
2013-02-01 22:05:00,25.6,14.7,30.22,South,182,2.0,6.0,63,0.00,,,0.00,Wunderground v.1.15,2013-02-02 04:05:00,
2013-02-01 22:10:00,25.6,14.7,30.21,SW,226,2.0,6.0,63,0.00,,,0.00,Wunderground v.1.15,2013-02-02 04:10:00,
2013-02-01 22:15:00,25.6,14.7,30.21,SW,219,1.0,6.0,63,0.00,,,0.00,Wunderground v.1.15,2013-02-02 04:15:00,
2013-02-01 22:20:00,25.6,14.7,30.21,South,178,1.0,4.0,63,0.00,,,0.00,Wunderground v.1.15,2013-02-02 04:20:00,
2013-02-01 22:25:00,25.7,14.8,30.21,SW,216,1.0,4.0,63,0.00,,,0.00,Wunderground v.1.15,2013-02-02 04:25:00,
2013-02-01 22:30:00,25.7,14.8,30.21,ESE,117,1.0,4.0,63,0.00,,,0.00,Wunderground v.1.15,2013-02-02 04:30:00,
2013-02-01 22:35:00,25.8,14.9,30.21,SSW,195,4.0,5.0,63,0.00,,,0.00,Wunderground v.1.15,2013-02-02 04:35:00,
2013-02-01 22:40:00,25.9,15.0,30.20,SSW,211,2.0,4.0,63,0.00,,,0.00,Wunderground v.1.15,2013-02-02 04:40:00,
2013-02-01 22:45:00,26.0,15.1,30.20,SW,229,1.0,6.0,63,0.00,,,0.00,Wunderground v.1.15,2013-02-02 04:45:00,
2013-02-01 22:50:00,26.1,14.8,30.20,SW,215,3.0,6.0,62,0.00,,,0.00,Wunderground v.1.15,2013-02-02 04:50:00,
2013-02-01 22:55:00,26.1,14.8,30.20,South,174,2.0,7.0,62,0.00,,,0.00,Wunderground v.1.15,2013-02-02 04:55:00,
2013-02-01 23:00:00,26.2,14.9,30.20,SW,231,1.0,3.0,62,0.00,,,0.00,Wunderground v.1.15,2013-02-02 05:00:00,
2013-02-01 23:01:00,26.2,14.9,30.20,WSW,258,2.0,4.0,62,0.00,,,0.00,Wunderground v.1.15,2013-02-02 05:01:00,
2013-02-01 23:06:00,26.3,15.0,30.20,SSW,196,2.0,6.0,62,0.00,,,0.00,Wunderground v.1.15,2013-02-02 05:06:00,
2013-02-01 23:11:00,26.3,15.0,30.20,SW,228,2.0,5.0,62,0.00,,,0.00,Wunderground v.1.15,2013-02-02 05:11:00,
2013-02-01 23:16:00,26.4,15.1,30.20,South,188,2.0,5.0,62,0.00,,,0.00,Wunderground v.1.15,2013-02-02 05:16:00,
2013-02-01 23:21:00,26.5,14.9,30.19,South,180,3.0,5.0,61,0.00,,,0.00,Wunderground v.1.15,2013-02-02 05:21:00,
2013-02-01 23:26:00,26.6,15.3,30.19,WSW,244,3.0,5.0,62,0.00,,,0.00,Wunderground v.1.15,2013-02-02 05:26:00,
2013-02-01 23:31:00,26.7,15.0,30.19,South,169,1.0,3.0,61,0.00,,,0.00,Wunderground v.1.15,2013-02-02 05:31:00,
2013-02-01 23:36:00,26.8,15.1,30.19,SW,223,2.0,6.0,61,0.00,,,0.00,Wunderground v.1.15,2013-02-02 05:36:00,
2013-02-01 23:41:00,26.9,15.2,30.19,SW,229,2.0,3.0,61,0.00,,,0.00,Wunderground v.1.15,2013-02-02 05:41:00,
2013-02-01 23:46:00,27.0,15.3,30.19,SW,227,3.0,5.0,61,0.00,,,0.00,Wunderground v.1.15,2013-02-02 05:46:00,
2013-02-01 23:51:00,27.0,15.3,30.19,SSW,197,1.0,2.0,61,0.00,,,0.00,Wunderground v.1.15,2013-02-02 05:51:00,
2013-02-01 23:56:00,27.1,15.4,30.19,West,266,0.0,5.0,61,0.00,,,0.00,Wunderground v.1.15,2013-02-02 05:56:00,